Latest Weather Observations for Coober Pedy Airport

IDS60801

Issued at 2:32 pm CST Tuesday 28 April 2015 (issued every 30 minutes, with the page automatically refreshed every 10 minutes)

About weather observations | Map of weather stations | Latest weather observations for SA | Other Formats
Station Details ID: 016090 Name: COOBER PEDY AIRPORT Lat: -29.03 Lon: 134.72 Height: 225.0 m
Data from the previous 72 hours. | See also: Recent months at Coober Pedy Airport
Date/Time
CST
Temp
°C
App
Temp
°C
Dew
Point
Rel
Hum
%
Delta-T
°C
Wind Press
QNH
hPa
Press
MSL
hPa
Rain
since 9 am
mm
Dir
 
Spd
km/h
Gust
km/h
Spd
kts
Gust
kts
28/02:30pm 17.9 13.2 0.6 31 7.6 SSE 15 26 8 14 1025.9 1025.2 0.0
28/02:00pm 18.3 12.8 0.4 30 7.9 SE 19 33 10 18 1026.2 1025.5 0.0
28/01:30pm 16.8 11.2 0.0 32 7.3 ESE 19 32 10 17 1026.8 1026.0 0.0
28/01:00pm 17.1 11.0 0.7 33 7.3 ESE 22 39 12 21 1027.4 1026.7 0.0
28/12:30pm 16.7 10.7 0.8 34 7.0 ESE 22 32 12 17 1027.9 1027.2 0.0
28/12:00pm 16.3 10.3 1.2 36 6.7 SE 22 32 12 17 1028.3 1027.6 0.0
28/11:30am 16.0 10.0 1.3 37 6.5 ESE 22 32 12 17 1028.8 1028.1 0.0
28/11:00am 15.5 9.8 0.5 36 6.5 SE 20 30 11 16 1029.2 1028.5 0.0
28/10:30am 16.4 10.0 0.9 35 6.8 ESE 24 35 13 19 1029.6 1028.9 0.0
28/10:00am 14.7 8.8 1.9 42 5.7 ESE 22 30 12 16 1029.9 1029.2 0.0
28/09:30am 14.6 8.8 2.2 43 5.5 ESE 22 28 12 15 1029.9 1029.2 0.0
28/09:00am 13.6 8.8 2.5 47 4.9 SE 17 22 9 12 1029.9 1029.2 0.0
28/08:30am 12.7 8.7 2.8 51 4.4 SE 13 17 7 9 1029.8 1029.1 0.0
28/08:00am 11.7 8.1 3.0 55 3.8 SSE 11 15 6 8 1029.6 1028.9 0.0
28/07:30am 10.1 6.8 2.2 58 3.4 SSE 9 11 5 6 1029.3 1028.6 0.0
28/07:00am 9.7 5.9 1.8 58 3.3 SSE 11 13 6 7 1029.1 1028.4 0.0
28/06:30am 9.0 4.8 1.7 60 3.0 S 13 15 7 8 1028.7 1028.0 0.0
28/06:00am 8.8 4.5 1.2 59 3.1 S 13 15 7 8 1028.5 1027.8 0.0
28/05:30am 8.5 5.0 1.2 60 3.0 SSE 9 13 5 7 1028.1 1027.4 0.0
28/05:00am 8.5 4.2 1.0 59 3.1 SSE 13 17 7 9 1028.0 1027.3 0.0
28/04:30am 9.2 4.6 1.4 58 3.2 SSE 15 17 8 9 1027.9 1027.2 0.0
28/04:00am 9.2 4.6 1.6 59 3.2 SE 15 17 8 9 1027.8 1027.1 0.0
28/03:30am 9.7 4.8 1.8 58 3.3 SSE 17 19 9 10 1027.8 1027.1 0.0
28/03:00am 10.1 4.7 1.5 55 3.6 SSE 19 20 10 11 1027.8 1027.1 0.0
28/02:30am 10.5 5.5 1.6 54 3.8 SE 17 20 9 11 1027.7 1027.0 0.0
28/02:00am 10.2 5.5 0.8 52 3.9 SE 15 17 8 9 1027.6 1026.9 0.0
28/01:30am 11.2 6.2 1.2 50 4.2 SE 17 20 9 11 1027.6 1026.9 0.0
28/01:00am 11.4 6.0 1.1 49 4.4 SE 19 20 10 11 1027.7 1027.0 0.0
28/12:30am 11.5 6.1 1.2 49 4.3 SE 19 20 10 11 1027.7 1027.0 0.0
28/12:00am 11.4 6.7 1.1 49 4.3 SE 15 17 8 9 1027.7 1027.0 0.0
 
Date/Time
CST
Temp
°C
App
Temp
°C
Dew
Point
Rel
Hum
%
Delta-T
°C
Wind Press
QNH
hPa
Press
MSL
hPa
Rain
since 9 am
mm
Dir
 
Spd
km/h
Gust
km/h
Spd
kts
Gust
kts
27/11:30pm 11.7 7.1 1.4 49 4.4 SE 15 17 8 9 1027.9 1027.2 0.0
27/11:00pm 12.2 7.6 1.8 49 4.5 SE 15 17 8 9 1027.9 1027.2 0.0
27/10:30pm 12.8 8.2 1.8 47 4.8 SE 15 19 8 10 1028.1 1027.4 0.0
27/10:00pm 13.6 8.4 2.2 46 5.0 SE 19 22 10 12 1028.1 1027.4 0.0
27/09:30pm 14.5 9.3 2.4 44 5.4 SE 19 24 10 13 1028.1 1027.4 0.0
27/09:00pm 15.5 10.1 2.3 41 5.9 SE 20 28 11 15 1028.1 1027.4 0.0
27/08:30pm 16.2 10.4 2.2 39 6.3 SE 22 28 12 15 1027.9 1027.2 0.0
27/08:00pm 16.8 11.0 2.4 38 6.6 SE 22 28 12 15 1027.7 1027.0 0.0
27/07:30pm 17.3 11.9 2.5 37 6.8 SE 20 26 11 14 1027.4 1026.7 0.0
27/07:00pm 17.4 12.1 3.0 38 6.7 SSE 20 28 11 15 1027.0 1026.2 0.0
27/06:30pm 17.7 12.4 3.2 38 6.7 SSE 20 28 11 15 1026.6 1025.9 0.0
27/06:00pm 18.2 13.0 3.3 37 7.0 SSE 20 26 11 14 1026.4 1025.7 0.0
27/05:30pm 18.6 13.4 3.6 37 7.1 SSE 20 26 11 14 1026.2 1025.5 0.0
27/05:00pm 18.4 13.2 2.7 35 7.3 SSE 19 22 10 12 1026.1 1025.4 0.0
27/04:30pm 18.5 13.5 3.6 37 7.0 SE 19 24 10 13 1025.9 1025.2 0.0
27/04:00pm 18.9 13.8 3.1 35 7.4 S 19 26 10 14 1025.8 1025.1 0.0
27/03:30pm 19.4 15.2 3.6 35 7.5 SSE 15 24 8 13 1025.7 1025.0 0.0
27/03:00pm 19.0 13.9 3.2 35 7.4 SE 19 26 10 14 1025.5 1024.8 0.0
27/02:30pm 18.8 13.7 3.0 35 7.4 SSE 19 26 10 14 1025.7 1025.0 0.0
27/02:00pm 18.4 13.2 3.5 37 7.1 SSE 20 28 11 15 1025.9 1025.2 0.0
27/01:30pm 18.4 13.8 3.8 38 6.9 SSE 17 24 9 13 1026.3 1025.6 0.0
27/01:00pm 18.0 13.4 3.9 39 6.7 SSE 17 26 9 14 1026.6 1025.9 0.0
27/12:30pm 17.8 12.8 4.7 42 6.3 SE 20 30 11 16 1027.2 1026.4 0.0
27/12:00pm 17.7 12.8 5.3 44 6.0 ESE 20 30 11 16 1027.5 1026.8 0.0
27/11:30am 17.6 12.8 5.5 45 5.9 ESE 20 28 11 15 1028.0 1027.3 0.0
27/11:00am 17.2 12.1 6.1 48 5.5 SE 22 33 12 18 1028.3 1027.6 0.0
27/10:30am 16.7 12.2 7.1 53 4.8 ESE 20 30 11 16 1028.5 1027.8 0.0
27/10:00am 16.0 10.9 7.5 57 4.3 SE 24 32 13 17 1028.6 1027.9 0.0
27/09:30am 15.0 10.4 8.3 64 3.4 SE 22 32 12 17 1028.7 1028.0 0.0
27/09:00am 13.7 9.5 8.1 69 2.8 SE 20 26 11 14 1028.6 1027.9 0.0
27/08:30am 13.0 8.8 8.1 72 2.4 SE 20 26 11 14 1028.3 1027.6 0.0
27/08:00am 11.4 7.9 7.1 75 2.1 SE 15 20 8 11 1027.9 1027.2 0.0
27/07:30am 9.5 6.0 5.3 75 1.9 SSE 13 15 7 8 1027.6 1026.9 0.0
27/07:00am 8.9 5.4 5.3 78 1.6 SSE 13 15 7 8 1027.4 1026.7 0.0
27/06:30am 9.3 5.7 5.1 75 1.9 SE 13 15 7 8 1027.1 1026.3 0.0
27/06:00am 9.6 5.7 5.2 74 2.0 SSE 15 19 8 10 1026.5 1025.8 0.0
27/05:30am 9.3 4.8 4.3 71 2.2 S 17 19 9 10 1026.2 1025.5 0.0
27/05:00am 8.7 3.9 2.5 65 2.6 S 17 19 9 10 1025.9 1025.2 0.0
27/04:30am 8.8 4.4 2.6 65 2.6 S 15 17 8 9 1025.7 1025.0 0.0
27/04:00am 9.7 5.5 3.9 67 2.6 SSE 15 15 8 8 1025.7 1025.0 0.0
27/03:30am 10.1 5.5 3.8 65 2.8 SSE 17 17 9 9 1025.6 1024.9 0.0
27/03:00am 10.0 5.7 3.5 64 2.9 SSE 15 17 8 9 1025.7 1025.0 0.0
27/02:30am 9.9 5.9 2.7 61 3.1 SSE 13 15 7 8 1025.8 1025.1 0.0
27/02:00am 10.7 6.0 3.3 60 3.3 SSE 17 17 9 9 1025.9 1025.2 0.0
27/01:30am 10.9 6.2 3.0 58 3.5 SSE 17 17 9 9 1025.8 1025.1 0.0
27/01:00am 11.3 7.3 2.9 56 3.7 SE 13 15 7 8 1026.0 1025.3 0.0
27/12:30am 11.6 7.2 2.6 54 3.9 SE 15 17 8 9 1026.1 1025.4 0.0
27/12:00am 12.0 7.6 2.5 52 4.1 SE 15 17 8 9 1026.3 1025.6 0.0
 
Date/Time
CST
Temp
°C
App
Temp
°C
Dew
Point
Rel
Hum
%
Delta-T
°C
Wind Press
QNH
hPa
Press
MSL
hPa
Rain
since 9 am
mm
Dir
 
Spd
km/h
Gust
km/h
Spd
kts
Gust
kts
26/11:30pm 12.8 8.3 2.4 49 4.6 SE 15 19 8 10 1026.5 1025.8 0.0
26/11:00pm 12.8 8.3 2.1 48 4.7 SE 15 17 8 9 1026.6 1025.9 0.0
26/10:30pm 11.7 7.8 1.4 49 4.4 SE 11 13 6 7 1026.9 1026.1 0.0
26/10:00pm 12.3 8.0 1.0 46 4.8 SE 13 17 7 9 1026.9 1026.1 0.0
26/09:30pm 12.9 8.6 1.3 45 5.0 S 13 13 7 7 1026.8 1026.0 0.0
26/09:00pm 13.5 9.8 2.1 46 5.0 S 11 11 6 6 1026.4 1025.7 0.0
26/08:30pm 13.8 10.0 1.8 44 5.2 S 11 13 6 7 1026.2 1025.5 0.0
26/08:00pm 14.3 10.5 1.9 43 5.5 S 11 13 6 7 1025.9 1025.2 0.0
26/07:30pm 15.5 11.5 2.7 42 5.8 S 13 13 7 7 1025.9 1025.2 0.0
26/07:00pm 16.2 11.5 2.9 41 6.1 S 17 19 9 10 1025.6 1024.9 0.0
26/06:30pm 16.6 11.9 3.0 40 6.2 SSW 17 20 9 11 1025.3 1024.6 0.0
26/06:00pm 17.4 11.4 3.3 39 6.6 S 24 28 13 15 1025.0 1024.3 0.0
26/05:30pm 17.9 12.3 3.4 38 6.8 S 22 28 12 15 1024.7 1024.0 0.0
26/05:00pm 18.4 13.8 3.8 38 7.0 S 17 22 9 12 1024.3 1023.6 0.0
26/04:30pm 18.8 13.6 3.8 37 7.1 SSW 20 28 11 15 1024.2 1023.5 0.0
26/04:00pm 18.9 13.8 4.3 38 7.0 SW 20 28 11 15 1024.0 1023.3 0.0
26/03:30pm 18.9 14.0 4.3 38 7.0 SSW 19 28 10 15 1024.2 1023.5 0.0
26/03:00pm 19.0 14.6 4.7 39 6.9 SSW 17 26 9 14 1024.2 1023.5 0.0
26/02:30pm 18.7 14.2 4.1 38 7.0 SSW 17 24 9 13 1024.4 1023.7 0.0
26/02:00pm 19.0 15.0 5.1 40 6.8 SSW 15 22 8 12 1024.4 1023.7 0.0
26/01:30pm 18.6 15.0 4.8 40 6.7 SSW 13 22 7 12 1024.6 1023.9 0.0
26/01:00pm 18.7 16.2 4.8 40 6.8 SSW 7 17 4 9 1024.8 1024.1 0.0
26/12:30pm 18.0 14.4 5.2 43 6.2 ESE 13 20 7 11 1025.3 1024.6 0.0
26/12:00pm 18.1 15.9 5.3 43 6.2 SSW 6 13 3 7 1025.6 1024.9 0.0
26/11:30am 17.1 13.3 5.7 47 5.6 SSW 15 22 8 12 1026.0 1025.3 0.0
26/11:00am 17.4 12.9 6.0 47 5.6 SSE 19 26 10 14 1026.2 1025.5 0.0
26/10:30am 17.0 12.5 6.8 51 5.1 SE 20 30 11 16 1026.4 1025.7 0.0
26/10:00am 16.9 12.3 8.3 57 4.4 SE 22 28 12 15 1026.6 1025.9 0.0
26/09:30am 15.7 10.8 8.4 62 3.7 SE 24 32 13 17 1026.6 1025.9 0.0
26/09:00am 15.2 10.4 8.9 66 3.2 SSE 24 30 13 16 1026.4 1025.7 0.0
26/08:30am 14.7 10.7 9.1 69 2.9 SSE 20 26 11 14 1026.1 1025.4 0.0
26/08:00am 14.0 10.2 9.0 72 2.6 SSE 19 22 10 12 1025.9 1025.2 0.0
26/07:30am 13.9 9.9 9.1 73 2.5 SSE 20 24 11 13 1025.3 1024.6 0.0
26/07:00am 13.8 10.0 9.0 73 2.5 S 19 22 10 12 1024.8 1024.1 0.0
26/06:30am 13.9 9.9 8.9 72 2.5 S 20 24 11 13 1024.5 1023.8 0.0
26/06:00am 14.0 9.9 8.8 71 2.6 S 20 24 11 13 1024.3 1023.6 0.0
26/05:30am 14.0 9.9 8.8 71 2.6 S 20 26 11 14 1024.2 1023.5 0.0
26/05:00am 14.1 9.7 8.9 71 2.7 S 22 26 12 14 1024.0 1023.3 0.0
26/04:30am 14.1 10.0 8.7 70 2.7 SSW 20 24 11 13 1023.9 1023.2 0.0
26/04:00am 14.1 9.6 8.5 69 2.8 S 22 28 12 15 1023.5 1022.8 0.0
26/03:30am 14.4 9.5 8.6 68 2.9 S 24 28 13 15 1023.4 1022.7 0.0
26/03:00am 14.7 10.8 8.6 67 3.1 SSW 19 26 10 14 1023.4 1022.7 0.0
26/02:30am 14.9 10.0 8.4 65 3.3 S 24 30 13 16 1023.3 1022.5 0.0
26/02:00am 15.1 10.2 8.3 64 3.5 S 24 32 13 17 1023.2 1022.4 0.0
26/01:30am 15.4 11.2 8.2 62 3.7 S 20 28 11 15 1023.2 1022.4 0.0
26/01:00am 15.5 10.2 8.3 62 3.7 S 26 33 14 18 1023.2 1022.4 0.0
26/12:30am 15.6 10.6 7.9 60 3.9 S 24 32 13 17 1023.2 1022.4 0.0
26/12:00am 15.8 10.7 7.6 58 4.1 S 24 30 13 16 1023.3 1022.5 0.0
 
Date/Time
CST
Temp
°C
App
Temp
°C
Dew
Point
Rel
Hum
%
Delta-T
°C
Wind Press
QNH
hPa
Press
MSL
hPa
Rain
since 9 am
mm
Dir
 
Spd
km/h
Gust
km/h
Spd
kts
Gust
kts
25/11:30pm 16.0 10.7 7.0 55 4.5 S 24 32 13 17 1023.5 1022.8 0.0
25/11:00pm 16.1 10.7 6.5 53 4.7 SSW 24 32 13 17 1023.8 1023.1 0.0
25/10:30pm 16.3 11.2 6.2 51 4.9 S 22 26 12 14 1023.7 1023.0 0.0
25/10:00pm 16.0 11.8 5.9 51 4.9 S 17 20 9 11 1023.7 1023.0 0.0
25/09:30pm 15.3 10.5 4.9 50 4.9 S 19 24 10 13 1023.5 1022.8 0.0
25/09:00pm 15.0 10.5 4.1 48 5.1 S 17 19 9 10 1023.3 1022.5 0.0
25/08:30pm 15.6 11.0 3.7 45 5.5 SSW 17 20 9 11 1022.9 1022.1 0.0
25/08:00pm 16.2 11.6 3.6 43 5.9 S 17 19 9 10 1022.3 1021.5 0.0
25/07:30pm 17.1 12.0 4.1 42 6.1 S 20 26 11 14 1021.8 1021.1 0.0
25/07:00pm 17.9 11.6 3.8 39 6.7 S 26 33 14 18 1021.3 1020.6 0.0
25/06:30pm 18.3 13.3 3.4 37 7.0 SSW 19 26 10 14 1021.0 1020.3 0.0
25/06:00pm 18.8 12.1 3.4 36 7.3 SSW 28 35 15 19 1020.6 1019.9 0.0
25/05:30pm 19.5 12.4 3.6 35 7.6 S 30 37 16 20 1020.2 1019.5 0.0
25/05:00pm 19.8 12.2 3.1 33 7.9 SSW 32 39 17 21 1019.9 1019.2 0.0
25/04:30pm 20.2 12.5 3.4 33 8.0 SSW 33 44 18 24 1019.6 1018.9 0.0
25/04:00pm 20.3 12.2 3.5 33 8.1 SW 35 48 19 26 1019.4 1018.6 0.0
25/03:30pm 20.4 13.4 4.0 34 7.9 SW 30 39 16 21 1019.5 1018.7 0.0
25/03:00pm 20.7 13.9 3.0 31 8.4 SW 28 46 15 25 1019.3 1018.5 0.0
25/02:57pm 20.3 13.5 3.1 32 8.2 SW 28 46 15 25 1019.5 1018.7 0.0

Other Formats:

Comma delimited format used in spreadsheet applications
http://www.bom.gov.au/fwo/IDS60801/IDS60801.95458.axf

JavaScript Object Notation format (JSON) in row-major order
http://www.bom.gov.au/fwo/IDS60801/IDS60801.95458.json